sensor_id;sensor_type;location;lat;lon;timestamp;P1;durP1;ratioP1;P2;durP2;ratioP2
3465;SDS011;1747;48.884;9.160;2022-08-07T00:05:31;1.50;;;1.10;;
3465;SDS011;1747;48.884;9.160;2022-08-07T00:07:59;1.25;;;1.05;;
3465;SDS011;1747;48.884;9.160;2022-08-07T00:10:26;2.08;;;1.10;;
3465;SDS011;1747;48.884;9.160;2022-08-07T00:12:53;2.50;;;1.10;;
3465;SDS011;1747;48.884;9.160;2022-08-07T00:15:20;1.52;;;1.00;;
3465;SDS011;1747;48.884;9.160;2022-08-07T00:17:49;1.20;;;1.10;;
3465;SDS011;1747;48.884;9.160;2022-08-07T00:20:19;2.33;;;1.20;;
3465;SDS011;1747;48.884;9.160;2022-08-07T00:37:06;1.25;;;1.02;;
3465;SDS011;1747;48.884;9.160;2022-08-07T00:39:34;1.45;;;1.00;;
3465;SDS011;1747;48.884;9.160;2022-08-07T00:42:01;1.83;;;1.00;;
3465;SDS011;1747;48.884;9.160;2022-08-07T00:44:28;6.45;;;1.20;;
3465;SDS011;1747;48.884;9.160;2022-08-07T00:46:54;2.47;;;1.10;;
3465;SDS011;1747;48.884;9.160;2022-08-07T00:49:21;1.33;;;1.20;;
3465;SDS011;1747;48.884;9.160;2022-08-07T01:05:48;1.15;;;1.05;;
3465;SDS011;1747;48.884;9.160;2022-08-07T01:08:16;1.25;;;1.10;;
3465;SDS011;1747;48.884;9.160;2022-08-07T01:10:43;2.03;;;1.35;;
3465;SDS011;1747;48.884;9.160;2022-08-07T01:13:10;2.03;;;1.10;;
3465;SDS011;1747;48.884;9.160;2022-08-07T01:15:37;2.17;;;1.00;;
3465;SDS011;1747;48.884;9.160;2022-08-07T01:18:08;2.00;;;1.27;;
3465;SDS011;1747;48.884;9.160;2022-08-07T01:38:18;1.23;;;1.13;;
3465;SDS011;1747;48.884;9.160;2022-08-07T01:40:45;1.23;;;1.05;;
3465;SDS011;1747;48.884;9.160;2022-08-07T01:43:14;1.83;;;1.30;;
3465;SDS011;1747;48.884;9.160;2022-08-07T01:45:41;2.28;;;1.30;;
3465;SDS011;1747;48.884;9.160;2022-08-07T01:48:08;2.85;;;1.10;;
3465;SDS011;1747;48.884;9.160;2022-08-07T01:50:36;2.22;;;1.05;;
3465;SDS011;1747;48.884;9.160;2022-08-07T01:53:04;2.83;;;1.13;;
3465;SDS011;1747;48.884;9.160;2022-08-07T05:58:07;3.53;;;1.90;;
3465;SDS011;1747;48.884;9.160;2022-08-07T06:00:35;2.00;;;1.77;;
3465;SDS011;1747;48.884;9.160;2022-08-07T06:03:04;2.50;;;2.03;;
3465;SDS011;1747;48.884;9.160;2022-08-07T06:05:34;2.80;;;2.30;;
3465;SDS011;1747;48.884;9.160;2022-08-07T06:08:01;2.70;;;2.45;;
3465;SDS011;1747;48.884;9.160;2022-08-07T06:10:29;5.53;;;1.92;;
3465;SDS011;1747;48.884;9.160;2022-08-07T06:12:56;3.15;;;2.30;;
3465;SDS011;1747;48.884;9.160;2022-08-07T06:15:26;2.83;;;2.30;;
3465;SDS011;1747;48.884;9.160;2022-08-07T06:17:55;3.15;;;2.65;;
3465;SDS011;1747;48.884;9.160;2022-08-07T06:20:22;4.55;;;2.53;;
3465;SDS011;1747;48.884;9.160;2022-08-07T06:22:50;3.20;;;2.53;;
3465;SDS011;1747;48.884;9.160;2022-08-07T06:25:18;2.90;;;2.47;;
3465;SDS011;1747;48.884;9.160;2022-08-07T06:27:45;3.03;;;2.70;;
3465;SDS011;1747;48.884;9.160;2022-08-07T06:30:12;2.95;;;2.65;;
3465;SDS011;1747;48.884;9.160;2022-08-07T06:32:40;3.42;;;3.13;;
3465;SDS011;1747;48.884;9.160;2022-08-07T06:35:07;3.10;;;2.72;;
3465;SDS011;1747;48.884;9.160;2022-08-07T06:37:34;4.25;;;2.72;;
3465;SDS011;1747;48.884;9.160;2022-08-07T06:40:02;4.13;;;3.20;;
3465;SDS011;1747;48.884;9.160;2022-08-07T06:42:30;4.28;;;2.80;;
3465;SDS011;1747;48.884;9.160;2022-08-07T06:45:01;3.85;;;3.00;;
3465;SDS011;1747;48.884;9.160;2022-08-07T06:47:31;3.67;;;2.90;;
3465;SDS011;1747;48.884;9.160;2022-08-07T06:49:59;3.60;;;3.00;;
3465;SDS011;1747;48.884;9.160;2022-08-07T06:52:28;3.38;;;2.80;;
3465;SDS011;1747;48.884;9.160;2022-08-07T06:54:58;3.85;;;2.95;;
3465;SDS011;1747;48.884;9.160;2022-08-07T06:57:26;6.75;;;2.88;;
3465;SDS011;1747;48.884;9.160;2022-08-07T06:59:56;4.03;;;3.15;;
3465;SDS011;1747;48.884;9.160;2022-08-07T07:02:24;3.15;;;2.85;;
3465;SDS011;1747;48.884;9.160;2022-08-07T07:04:52;3.63;;;3.00;;
3465;SDS011;1747;48.884;9.160;2022-08-07T07:07:21;2.90;;;2.20;;
3465;SDS011;1747;48.884;9.160;2022-08-07T07:09:48;4.57;;;2.90;;
3465;SDS011;1747;48.884;9.160;2022-08-07T07:12:18;2.88;;;2.58;;
3465;SDS011;1747;48.884;9.160;2022-08-07T07:14:55;4.28;;;2.53;;
3465;SDS011;1747;48.884;9.160;2022-08-07T07:17:27;2.90;;;2.55;;
3465;SDS011;1747;48.884;9.160;2022-08-07T07:19:59;3.20;;;2.90;;
3465;SDS011;1747;48.884;9.160;2022-08-07T07:22:30;3.30;;;2.70;;
3465;SDS011;1747;48.884;9.160;2022-08-07T07:24:58;7.45;;;3.00;;
3465;SDS011;1747;48.884;9.160;2022-08-07T07:27:28;4.45;;;2.80;;
3465;SDS011;1747;48.884;9.160;2022-08-07T07:29:59;3.30;;;3.00;;
3465;SDS011;1747;48.884;9.160;2022-08-07T07:32:29;4.35;;;3.10;;
3465;SDS011;1747;48.884;9.160;2022-08-07T07:35:02;4.25;;;3.30;;
3465;SDS011;1747;48.884;9.160;2022-08-07T07:37:31;4.90;;;3.25;;
3465;SDS011;1747;48.884;9.160;2022-08-07T07:40:01;3.30;;;3.00;;
3465;SDS011;1747;48.884;9.160;2022-08-07T07:42:30;3.83;;;2.60;;
3465;SDS011;1747;48.884;9.160;2022-08-07T07:44:59;3.17;;;2.78;;
3465;SDS011;1747;48.884;9.160;2022-08-07T07:47:27;5.13;;;3.08;;
3465;SDS011;1747;48.884;9.160;2022-08-07T07:49:55;3.20;;;2.50;;
3465;SDS011;1747;48.884;9.160;2022-08-07T07:52:23;6.43;;;2.72;;
3465;SDS011;1747;48.884;9.160;2022-08-07T07:54:53;3.30;;;2.72;;
3465;SDS011;1747;48.884;9.160;2022-08-07T07:57:21;3.30;;;2.72;;
3465;SDS011;1747;48.884;9.160;2022-08-07T07:59:49;4.45;;;2.53;;
3465;SDS011;1747;48.884;9.160;2022-08-07T08:02:17;4.68;;;2.35;;
3465;SDS011;1747;48.884;9.160;2022-08-07T08:04:45;3.45;;;2.60;;
3465;SDS011;1747;48.884;9.160;2022-08-07T08:07:13;2.85;;;2.50;;
3465;SDS011;1747;48.884;9.160;2022-08-07T08:09:42;2.97;;;2.28;;
3465;SDS011;1747;48.884;9.160;2022-08-07T08:12:16;3.72;;;2.30;;
3465;SDS011;1747;48.884;9.160;2022-08-07T08:14:44;2.20;;;2.00;;
3465;SDS011;1747;48.884;9.160;2022-08-07T08:17:11;2.78;;;2.25;;
3465;SDS011;1747;48.884;9.160;2022-08-07T08:19:40;2.50;;;2.28;;
3465;SDS011;1747;48.884;9.160;2022-08-07T08:22:09;3.25;;;2.53;;
3465;SDS011;1747;48.884;9.160;2022-08-07T08:24:54;2.13;;;1.92;;
3465;SDS011;1747;48.884;9.160;2022-08-07T08:27:41;1.85;;;1.50;;
3465;SDS011;1747;48.884;9.160;2022-08-07T08:30:10;4.20;;;1.50;;
3465;SDS011;1747;48.884;9.160;2022-08-07T08:32:39;4.65;;;1.23;;
3465;SDS011;1747;48.884;9.160;2022-08-07T08:35:08;1.23;;;1.10;;
3465;SDS011;1747;48.884;9.160;2022-08-07T08:37:38;1.55;;;1.05;;
3465;SDS011;1747;48.884;9.160;2022-08-07T08:40:12;1.30;;;1.20;;
3465;SDS011;1747;48.884;9.160;2022-08-07T08:42:51;1.25;;;1.10;;
3465;SDS011;1747;48.884;9.160;2022-08-07T08:45:30;1.58;;;1.08;;
3465;SDS011;1747;48.884;9.160;2022-08-07T08:48:04;1.00;;;0.85;;
3465;SDS011;1747;48.884;9.160;2022-08-07T08:50:36;1.25;;;0.98;;
3465;SDS011;1747;48.884;9.160;2022-08-07T08:53:09;1.90;;;0.88;;
3465;SDS011;1747;48.884;9.160;2022-08-07T08:55:45;0.98;;;0.95;;
3465;SDS011;1747;48.884;9.160;2022-08-07T08:58:18;1.17;;;1.00;;
3465;SDS011;1747;48.884;9.160;2022-08-07T09:00:57;1.17;;;0.93;;
3465;SDS011;1747;48.884;9.160;2022-08-07T09:03:28;0.80;;;0.80;;
3465;SDS011;1747;48.884;9.160;2022-08-07T09:06:01;1.50;;;0.90;;
3465;SDS011;1747;48.884;9.160;2022-08-07T09:08:35;1.33;;;0.90;;
3465;SDS011;1747;48.884;9.160;2022-08-07T09:11:10;1.83;;;1.10;;
3465;SDS011;1747;48.884;9.160;2022-08-07T09:13:59;1.90;;;0.80;;
3465;SDS011;1747;48.884;9.160;2022-08-07T09:16:35;1.10;;;1.00;;
3465;SDS011;1747;48.884;9.160;2022-08-07T09:19:11;3.38;;;1.35;;
3465;SDS011;1747;48.884;9.160;2022-08-07T09:21:47;1.00;;;0.90;;
3465;SDS011;1747;48.884;9.160;2022-08-07T09:24:23;0.93;;;0.88;;
3465;SDS011;1747;48.884;9.160;2022-08-07T09:27:01;1.25;;;0.80;;
3465;SDS011;1747;48.884;9.160;2022-08-07T09:29:40;4.35;;;1.40;;
3465;SDS011;1747;48.884;9.160;2022-08-07T09:32:20;1.35;;;0.80;;
3465;SDS011;1747;48.884;9.160;2022-08-07T09:34:57;1.00;;;0.80;;
3465;SDS011;1747;48.884;9.160;2022-08-07T09:37:32;0.75;;;0.70;;
3465;SDS011;1747;48.884;9.160;2022-08-07T09:40:07;1.08;;;0.93;;
3465;SDS011;1747;48.884;9.160;2022-08-07T09:42:47;0.82;;;0.82;;
3465;SDS011;1747;48.884;9.160;2022-08-07T09:45:22;3.05;;;0.90;;
3465;SDS011;1747;48.884;9.160;2022-08-07T09:48:11;2.03;;;1.00;;
3465;SDS011;1747;48.884;9.160;2022-08-07T09:50:59;1.35;;;1.00;;
3465;SDS011;1747;48.884;9.160;2022-08-07T09:53:34;1.23;;;1.00;;
3465;SDS011;1747;48.884;9.160;2022-08-07T09:56:13;0.77;;;0.57;;
3465;SDS011;1747;48.884;9.160;2022-08-07T10:01:59;1.35;;;0.95;;
3465;SDS011;1747;48.884;9.160;2022-08-07T10:04:53;1.00;;;0.90;;
3465;SDS011;1747;48.884;9.160;2022-08-07T10:07:42;0.80;;;0.80;;
3465;SDS011;1747;48.884;9.160;2022-08-07T10:10:24;2.70;;;1.67;;
3465;SDS011;1747;48.884;9.160;2022-08-07T10:13:11;1.30;;;0.90;;
3465;SDS011;1747;48.884;9.160;2022-08-07T10:15:58;1.48;;;0.80;;
3465;SDS011;1747;48.884;9.160;2022-08-07T10:21:39;2.33;;;0.73;;
3465;SDS011;1747;48.884;9.160;2022-08-07T10:24:24;1.38;;;0.90;;
3465;SDS011;1747;48.884;9.160;2022-08-07T10:27:09;4.10;;;1.02;;
3465;SDS011;1747;48.884;9.160;2022-08-07T10:30:00;0.85;;;0.85;;
3465;SDS011;1747;48.884;9.160;2022-08-07T10:32:43;1.05;;;0.60;;
3465;SDS011;1747;48.884;9.160;2022-08-07T10:35:45;6.00;;;0.95;;
3465;SDS011;1747;48.884;9.160;2022-08-07T10:38:28;1.02;;;0.77;;
3465;SDS011;1747;48.884;9.160;2022-08-07T10:41:10;1.98;;;0.70;;
3465;SDS011;1747;48.884;9.160;2022-08-07T10:43:47;0.70;;;0.70;;
3465;SDS011;1747;48.884;9.160;2022-08-07T10:46:25;2.75;;;0.60;;
3465;SDS011;1747;48.884;9.160;2022-08-07T10:49:01;1.88;;;0.73;;
3465;SDS011;1747;48.884;9.160;2022-08-07T10:51:39;2.22;;;0.65;;
3465;SDS011;1747;48.884;9.160;2022-08-07T10:54:17;1.60;;;0.68;;
3465;SDS011;1747;48.884;9.160;2022-08-07T10:56:53;1.15;;;0.70;;
3465;SDS011;1747;48.884;9.160;2022-08-07T10:59:32;1.98;;;0.75;;
3465;SDS011;1747;48.884;9.160;2022-08-07T11:02:14;1.33;;;0.80;;
3465;SDS011;1747;48.884;9.160;2022-08-07T11:04:51;2.67;;;0.70;;
3465;SDS011;1747;48.884;9.160;2022-08-07T11:07:31;0.80;;;0.65;;
3465;SDS011;1747;48.884;9.160;2022-08-07T11:10:07;0.88;;;0.70;;
3465;SDS011;1747;48.884;9.160;2022-08-07T11:12:41;3.38;;;0.77;;
3465;SDS011;1747;48.884;9.160;2022-08-07T11:15:18;0.70;;;0.70;;
3465;SDS011;1747;48.884;9.160;2022-08-07T11:17:48;1.02;;;0.95;;
3465;SDS011;1747;48.884;9.160;2022-08-07T11:20:23;0.77;;;0.70;;
3465;SDS011;1747;48.884;9.160;2022-08-07T11:23:06;0.50;;;0.50;;
3465;SDS011;1747;48.884;9.160;2022-08-07T11:25:43;0.80;;;0.70;;
3465;SDS011;1747;48.884;9.160;2022-08-07T11:28:17;0.60;;;0.60;;
3465;SDS011;1747;48.884;9.160;2022-08-07T11:30:50;1.48;;;0.60;;
3465;SDS011;1747;48.884;9.160;2022-08-07T11:33:23;0.88;;;0.68;;
3465;SDS011;1747;48.884;9.160;2022-08-07T11:35:57;13.55;;;1.88;;
3465;SDS011;1747;48.884;9.160;2022-08-07T11:38:36;1.40;;;0.90;;
3465;SDS011;1747;48.884;9.160;2022-08-07T11:41:10;0.80;;;0.80;;
3465;SDS011;1747;48.884;9.160;2022-08-07T11:43:41;1.42;;;0.75;;
3465;SDS011;1747;48.884;9.160;2022-08-07T11:52:12;1.25;;;0.90;;
3465;SDS011;1747;48.884;9.160;2022-08-07T11:54:59;1.95;;;1.10;;
3465;SDS011;1747;48.884;9.160;2022-08-07T11:57:32;0.80;;;0.52;;
3465;SDS011;1747;48.884;9.160;2022-08-07T12:00:07;0.98;;;0.85;;
3465;SDS011;1747;48.884;9.160;2022-08-07T12:02:47;0.82;;;0.70;;
3465;SDS011;1747;48.884;9.160;2022-08-07T12:05:27;1.60;;;1.08;;
3465;SDS011;1747;48.884;9.160;2022-08-07T12:07:59;1.52;;;0.80;;
3465;SDS011;1747;48.884;9.160;2022-08-07T12:10:35;1.30;;;0.70;;
3465;SDS011;1747;48.884;9.160;2022-08-07T12:13:05;1.55;;;1.10;;
3465;SDS011;1747;48.884;9.160;2022-08-07T12:15:37;2.85;;;0.73;;
3465;SDS011;1747;48.884;9.160;2022-08-07T15:44:03;3.55;;;1.50;;
3465;SDS011;1747;48.884;9.160;2022-08-07T15:46:34;1.50;;;1.40;;
3465;SDS011;1747;48.884;9.160;2022-08-07T15:49:04;1.25;;;1.15;;
3465;SDS011;1747;48.884;9.160;2022-08-07T15:51:32;1.50;;;1.40;;
3465;SDS011;1747;48.884;9.160;2022-08-07T15:54:01;1.95;;;1.60;;
3465;SDS011;1747;48.884;9.160;2022-08-07T15:56:31;1.50;;;1.40;;
3465;SDS011;1747;48.884;9.160;2022-08-07T15:59:01;2.35;;;1.33;;
3465;SDS011;1747;48.884;9.160;2022-08-07T16:01:30;1.60;;;1.50;;
3465;SDS011;1747;48.884;9.160;2022-08-07T22:50:00;2.85;;;1.42;;
3465;SDS011;1747;48.884;9.160;2022-08-07T22:52:50;2.05;;;1.15;;
3465;SDS011;1747;48.884;9.160;2022-08-07T22:55:39;2.40;;;1.48;;
3465;SDS011;1747;48.884;9.160;2022-08-07T22:58:21;1.55;;;1.10;;
3465;SDS011;1747;48.884;9.160;2022-08-07T23:01:26;1.42;;;1.23;;
3465;SDS011;1747;48.884;9.160;2022-08-07T23:04:06;1.52;;;1.30;;
3465;SDS011;1747;48.884;9.160;2022-08-07T23:06:56;1.50;;;1.20;;
3465;SDS011;1747;48.884;9.160;2022-08-07T23:09:33;2.88;;;1.20;;
3465;SDS011;1747;48.884;9.160;2022-08-07T23:12:08;2.08;;;1.02;;
3465;SDS011;1747;48.884;9.160;2022-08-07T23:14:49;1.67;;;1.10;;
3465;SDS011;1747;48.884;9.160;2022-08-07T23:17:37;2.10;;;1.33;;
3465;SDS011;1747;48.884;9.160;2022-08-07T23:20:15;6.82;;;1.52;;
3465;SDS011;1747;48.884;9.160;2022-08-07T23:23:10;2.42;;;1.52;;
3465;SDS011;1747;48.884;9.160;2022-08-07T23:26:01;2.50;;;1.70;;
3465;SDS011;1747;48.884;9.160;2022-08-07T23:28:41;2.63;;;1.77;;
3465;SDS011;1747;48.884;9.160;2022-08-07T23:31:41;3.47;;;1.48;;
3465;SDS011;1747;48.884;9.160;2022-08-07T23:34:23;2.55;;;1.50;;
3465;SDS011;1747;48.884;9.160;2022-08-07T23:37:02;4.25;;;1.67;;
3465;SDS011;1747;48.884;9.160;2022-08-07T23:39:55;2.25;;;1.48;;
3465;SDS011;1747;48.884;9.160;2022-08-07T23:42:35;3.40;;;1.38;;
3465;SDS011;1747;48.884;9.160;2022-08-07T23:45:20;1.58;;;1.00;;
3465;SDS011;1747;48.884;9.160;2022-08-07T23:48:03;1.58;;;1.35;;
3465;SDS011;1747;48.884;9.160;2022-08-07T23:50:40;1.10;;;1.00;;
3465;SDS011;1747;48.884;9.160;2022-08-07T23:53:27;1.42;;;1.10;;
3465;SDS011;1747;48.884;9.160;2022-08-07T23:56:09;2.20;;;1.30;;
3465;SDS011;1747;48.884;9.160;2022-08-07T23:58:43;1.40;;;1.25;;
